sensor_id;sensor_type;location;lat;lon;timestamp;temperature;humidity
2523;DHT22;1272;53.332;9.860;2023-05-10T00:00:26;14.80;99.90
2523;DHT22;1272;53.332;9.860;2023-05-10T00:02:52;14.80;99.90
2523;DHT22;1272;53.332;9.860;2023-05-10T00:05:18;14.80;1.00
2523;DHT22;1272;53.332;9.860;2023-05-10T00:07:43;14.80;1.00
2523;DHT22;1272;53.332;9.860;2023-05-10T00:10:12;14.80;1.00
2523;DHT22;1272;53.332;9.860;2023-05-10T00:12:38;14.70;1.00
2523;DHT22;1272;53.332;9.860;2023-05-10T00:15:04;14.70;1.00
2523;DHT22;1272;53.332;9.860;2023-05-10T00:17:30;14.70;99.90
2523;DHT22;1272;53.332;9.860;2023-05-10T00:19:56;14.60;99.90
2523;DHT22;1272;53.332;9.860;2023-05-10T00:22:21;14.60;99.90
2523;DHT22;1272;53.332;9.860;2023-05-10T00:24:47;14.60;1.00
2523;DHT22;1272;53.332;9.860;2023-05-10T00:27:13;14.50;1.00
2523;DHT22;1272;53.332;9.860;2023-05-10T00:29:39;14.50;99.90
2523;DHT22;1272;53.332;9.860;2023-05-10T00:32:04;14.50;1.00
2523;DHT22;1272;53.332;9.860;2023-05-10T00:34:31;14.40;99.90
2523;DHT22;1272;53.332;9.860;2023-05-10T00:36:56;14.40;99.90
2523;DHT22;1272;53.332;9.860;2023-05-10T00:39:22;14.40;99.90
2523;DHT22;1272;53.332;9.860;2023-05-10T00:41:48;14.40;26.30
2523;DHT22;1272;53.332;9.860;2023-05-10T00:44:14;14.40;99.90
2523;DHT22;1272;53.332;9.860;2023-05-10T00:46:40;14.30;99.90
2523;DHT22;1272;53.332;9.860;2023-05-10T00:49:06;14.30;1.00
2523;DHT22;1272;53.332;9.860;2023-05-10T00:51:31;14.20;99.90
2523;DHT22;1272;53.332;9.860;2023-05-10T00:53:58;14.10;99.90
2523;DHT22;1272;53.332;9.860;2023-05-10T00:56:25;14.10;1.00
2523;DHT22;1272;53.332;9.860;2023-05-10T00:58:50;14.10;72.50
2523;DHT22;1272;53.332;9.860;2023-05-10T01:01:16;14.00;99.90
2523;DHT22;1272;53.332;9.860;2023-05-10T01:03:43;14.00;99.90
2523;DHT22;1272;53.332;9.860;2023-05-10T01:06:09;14.00;12.10
2523;DHT22;1272;53.332;9.860;2023-05-10T01:08:35;14.00;99.90
2523;DHT22;1272;53.332;9.860;2023-05-10T01:11:01;13.90;99.90
2523;DHT22;1272;53.332;9.860;2023-05-10T01:13:35;13.80;99.90
2523;DHT22;1272;53.332;9.860;2023-05-10T01:16:02;13.80;99.90
2523;DHT22;1272;53.332;9.860;2023-05-10T01:18:30;13.80;99.90
2523;DHT22;1272;53.332;9.860;2023-05-10T01:27:01;13.70;99.90
2523;DHT22;1272;53.332;9.860;2023-05-10T01:35:39;13.40;99.90
2523;DHT22;1272;53.332;9.860;2023-05-10T01:46:37;13.20;99.90
2523;DHT22;1272;53.332;9.860;2023-05-10T01:49:09;13.20;99.90
2523;DHT22;1272;53.332;9.860;2023-05-10T01:52:06;13.10;99.90
2523;DHT22;1272;53.332;9.860;2023-05-10T01:54:33;13.10;99.90
2523;DHT22;1272;53.332;9.860;2023-05-10T01:57:03;13.10;99.90
2523;DHT22;1272;53.332;9.860;2023-05-10T01:59:34;13.00;1.00
2523;DHT22;1272;53.332;9.860;2023-05-10T02:02:07;12.90;99.90
2523;DHT22;1272;53.332;9.860;2023-05-10T02:04:38;12.90;99.90
2523;DHT22;1272;53.332;9.860;2023-05-10T02:07:05;12.90;99.90
2523;DHT22;1272;53.332;9.860;2023-05-10T02:09:33;12.90;99.90
2523;DHT22;1272;53.332;9.860;2023-05-10T02:12:01;12.90;99.90
2523;DHT22;1272;53.332;9.860;2023-05-10T02:14:32;12.80;99.90
2523;DHT22;1272;53.332;9.860;2023-05-10T02:16:59;12.80;99.90
2523;DHT22;1272;53.332;9.860;2023-05-10T02:19:28;12.80;99.90
2523;DHT22;1272;53.332;9.860;2023-05-10T02:21:55;12.80;99.90
2523;DHT22;1272;53.332;9.860;2023-05-10T02:24:21;12.80;99.90
2523;DHT22;1272;53.332;9.860;2023-05-10T02:26:50;12.80;99.90
2523;DHT22;1272;53.332;9.860;2023-05-10T02:29:17;12.70;99.90
2523;DHT22;1272;53.332;9.860;2023-05-10T02:31:44;12.70;99.90
2523;DHT22;1272;53.332;9.860;2023-05-10T02:34:11;12.70;32.30
2523;DHT22;1272;53.332;9.860;2023-05-10T02:36:38;12.60;99.90
2523;DHT22;1272;53.332;9.860;2023-05-10T02:39:05;12.70;99.90
2523;DHT22;1272;53.332;9.860;2023-05-10T02:41:35;12.70;1.00
2523;DHT22;1272;53.332;9.860;2023-05-10T02:44:02;12.60;99.90
2523;DHT22;1272;53.332;9.860;2023-05-10T02:46:29;12.60;99.90
2523;DHT22;1272;53.332;9.860;2023-05-10T02:48:55;12.60;1.00
2523;DHT22;1272;53.332;9.860;2023-05-10T02:51:28;12.60;99.90
2523;DHT22;1272;53.332;9.860;2023-05-10T02:53:57;12.60;1.00
2523;DHT22;1272;53.332;9.860;2023-05-10T02:56:33;12.60;99.90
2523;DHT22;1272;53.332;9.860;2023-05-10T02:58:59;12.60;99.90
2523;DHT22;1272;53.332;9.860;2023-05-10T03:01:25;12.50;99.90
2523;DHT22;1272;53.332;9.860;2023-05-10T03:03:51;12.50;1.00
2523;DHT22;1272;53.332;9.860;2023-05-10T03:06:17;12.40;18.60
2523;DHT22;1272;53.332;9.860;2023-05-10T03:08:44;12.40;99.90
2523;DHT22;1272;53.332;9.860;2023-05-10T03:11:16;12.40;99.90
2523;DHT22;1272;53.332;9.860;2023-05-10T03:14:03;12.40;99.90
2523;DHT22;1272;53.332;9.860;2023-05-10T03:16:42;12.30;99.90
2523;DHT22;1272;53.332;9.860;2023-05-10T03:21:56;12.20;1.00
2523;DHT22;1272;53.332;9.860;2023-05-10T03:24:27;12.10;99.90
2523;DHT22;1272;53.332;9.860;2023-05-10T03:26:56;12.10;99.90
2523;DHT22;1272;53.332;9.860;2023-05-10T03:29:24;12.10;75.70
2523;DHT22;1272;53.332;9.860;2023-05-10T03:31:51;12.10;1.00
2523;DHT22;1272;53.332;9.860;2023-05-10T03:34:16;12.10;1.00
2523;DHT22;1272;53.332;9.860;2023-05-10T03:36:48;12.10;99.90
2523;DHT22;1272;53.332;9.860;2023-05-10T03:39:13;12.00;99.90
2523;DHT22;1272;53.332;9.860;2023-05-10T03:41:39;11.90;99.90
2523;DHT22;1272;53.332;9.860;2023-05-10T03:44:07;12.00;1.00
2523;DHT22;1272;53.332;9.860;2023-05-10T03:46:33;11.90;85.50
2523;DHT22;1272;53.332;9.860;2023-05-10T03:48:59;11.90;99.90
2523;DHT22;1272;53.332;9.860;2023-05-10T03:51:24;12.00;99.90
2523;DHT22;1272;53.332;9.860;2023-05-10T03:53:54;12.00;1.00
2523;DHT22;1272;53.332;9.860;2023-05-10T03:56:19;12.10;99.90
2523;DHT22;1272;53.332;9.860;2023-05-10T03:58:46;12.10;1.00
2523;DHT22;1272;53.332;9.860;2023-05-10T04:01:12;12.00;1.00
2523;DHT22;1272;53.332;9.860;2023-05-10T04:03:37;12.10;99.90
2523;DHT22;1272;53.332;9.860;2023-05-10T04:06:04;12.00;1.00
2523;DHT22;1272;53.332;9.860;2023-05-10T04:08:30;12.00;99.90
2523;DHT22;1272;53.332;9.860;2023-05-10T04:11:08;12.10;99.90
2523;DHT22;1272;53.332;9.860;2023-05-10T04:13:34;12.10;99.90
2523;DHT22;1272;53.332;9.860;2023-05-10T04:16:00;12.10;99.90
2523;DHT22;1272;53.332;9.860;2023-05-10T04:18:26;12.10;99.90
2523;DHT22;1272;53.332;9.860;2023-05-10T04:20:51;12.10;99.90
2523;DHT22;1272;53.332;9.860;2023-05-10T04:23:17;12.20;99.90
2523;DHT22;1272;53.332;9.860;2023-05-10T04:25:43;12.20;99.90
2523;DHT22;1272;53.332;9.860;2023-05-10T04:28:09;12.20;99.90
2523;DHT22;1272;53.332;9.860;2023-05-10T04:30:34;12.20;99.90
2523;DHT22;1272;53.332;9.860;2023-05-10T04:33:00;12.20;99.90
2523;DHT22;1272;53.332;9.860;2023-05-10T04:35:29;12.30;99.90
2523;DHT22;1272;53.332;9.860;2023-05-10T04:37:55;12.30;99.90
2523;DHT22;1272;53.332;9.860;2023-05-10T04:40:21;12.30;99.90
2523;DHT22;1272;53.332;9.860;2023-05-10T04:42:47;12.30;99.90
2523;DHT22;1272;53.332;9.860;2023-05-10T04:45:13;12.40;99.90
2523;DHT22;1272;53.332;9.860;2023-05-10T04:47:40;12.50;99.90
2523;DHT22;1272;53.332;9.860;2023-05-10T04:50:06;12.50;99.90
2523;DHT22;1272;53.332;9.860;2023-05-10T04:52:32;12.50;99.90
2523;DHT22;1272;53.332;9.860;2023-05-10T04:54:58;12.50;99.90
2523;DHT22;1272;53.332;9.860;2023-05-10T04:57:24;12.50;99.90
2523;DHT22;1272;53.332;9.860;2023-05-10T04:59:50;12.50;99.90
2523;DHT22;1272;53.332;9.860;2023-05-10T05:02:16;12.50;99.90
2523;DHT22;1272;53.332;9.860;2023-05-10T05:04:42;12.60;99.90
2523;DHT22;1272;53.332;9.860;2023-05-10T05:07:07;12.60;99.90
2523;DHT22;1272;53.332;9.860;2023-05-10T05:09:33;12.60;99.90
2523;DHT22;1272;53.332;9.860;2023-05-10T05:11:59;12.70;99.90
2523;DHT22;1272;53.332;9.860;2023-05-10T05:14:24;12.70;99.90
2523;DHT22;1272;53.332;9.860;2023-05-10T05:16:53;12.80;99.90
2523;DHT22;1272;53.332;9.860;2023-05-10T05:19:19;12.80;99.90
2523;DHT22;1272;53.332;9.860;2023-05-10T05:21:44;12.90;99.90
2523;DHT22;1272;53.332;9.860;2023-05-10T05:24:10;12.90;99.90
2523;DHT22;1272;53.332;9.860;2023-05-10T05:26:38;12.90;99.90
2523;DHT22;1272;53.332;9.860;2023-05-10T05:29:03;13.00;99.90
2523;DHT22;1272;53.332;9.860;2023-05-10T05:31:29;13.00;99.90
2523;DHT22;1272;53.332;9.860;2023-05-10T05:33:55;13.00;99.90
2523;DHT22;1272;53.332;9.860;2023-05-10T05:36:21;13.00;99.90
2523;DHT22;1272;53.332;9.860;2023-05-10T05:38:47;13.00;99.90
2523;DHT22;1272;53.332;9.860;2023-05-10T05:41:13;13.10;99.90
2523;DHT22;1272;53.332;9.860;2023-05-10T05:43:39;13.20;99.90
2523;DHT22;1272;53.332;9.860;2023-05-10T05:46:04;13.30;99.90
2523;DHT22;1272;53.332;9.860;2023-05-10T05:48:30;13.20;99.90
2523;DHT22;1272;53.332;9.860;2023-05-10T05:50:56;13.20;99.90
2523;DHT22;1272;53.332;9.860;2023-05-10T05:53:22;13.30;99.90
2523;DHT22;1272;53.332;9.860;2023-05-10T05:55:56;13.30;99.90
2523;DHT22;1272;53.332;9.860;2023-05-10T05:58:22;13.40;99.90
2523;DHT22;1272;53.332;9.860;2023-05-10T06:00:49;13.40;99.90
2523;DHT22;1272;53.332;9.860;2023-05-10T06:03:15;13.60;99.90
2523;DHT22;1272;53.332;9.860;2023-05-10T06:05:41;13.60;99.90
2523;DHT22;1272;53.332;9.860;2023-05-10T06:08:06;13.60;99.90
2523;DHT22;1272;53.332;9.860;2023-05-10T06:10:32;13.70;99.90
2523;DHT22;1272;53.332;9.860;2023-05-10T06:12:58;13.80;99.90
2523;DHT22;1272;53.332;9.860;2023-05-10T06:15:23;13.90;99.90
2523;DHT22;1272;53.332;9.860;2023-05-10T06:17:49;13.90;99.90
2523;DHT22;1272;53.332;9.860;2023-05-10T06:20:15;14.00;99.90
2523;DHT22;1272;53.332;9.860;2023-05-10T06:22:41;14.10;99.90
2523;DHT22;1272;53.332;9.860;2023-05-10T06:25:07;14.10;99.90
2523;DHT22;1272;53.332;9.860;2023-05-10T06:27:33;14.10;99.90
2523;DHT22;1272;53.332;9.860;2023-05-10T06:29:59;14.20;99.90
2523;DHT22;1272;53.332;9.860;2023-05-10T06:32:25;14.20;99.90
2523;DHT22;1272;53.332;9.860;2023-05-10T06:34:51;14.30;99.90
2523;DHT22;1272;53.332;9.860;2023-05-10T06:37:17;14.30;99.90
2523;DHT22;1272;53.332;9.860;2023-05-10T06:39:43;14.40;99.90
2523;DHT22;1272;53.332;9.860;2023-05-10T06:42:08;14.40;99.90
2523;DHT22;1272;53.332;9.860;2023-05-10T06:44:34;14.40;99.90
2523;DHT22;1272;53.332;9.860;2023-05-10T06:47:00;14.50;99.90
2523;DHT22;1272;53.332;9.860;2023-05-10T06:49:26;14.50;99.90
2523;DHT22;1272;53.332;9.860;2023-05-10T06:51:51;14.60;99.90
2523;DHT22;1272;53.332;9.860;2023-05-10T06:54:17;14.60;99.90
2523;DHT22;1272;53.332;9.860;2023-05-10T06:56:43;14.70;99.90
2523;DHT22;1272;53.332;9.860;2023-05-10T06:59:08;14.80;99.90
2523;DHT22;1272;53.332;9.860;2023-05-10T07:01:34;14.90;99.90
2523;DHT22;1272;53.332;9.860;2023-05-10T07:04:00;14.90;99.90
2523;DHT22;1272;53.332;9.860;2023-05-10T07:06:26;14.90;99.90
2523;DHT22;1272;53.332;9.860;2023-05-10T07:08:52;14.90;99.90
2523;DHT22;1272;53.332;9.860;2023-05-10T07:11:18;15.00;99.90
2523;DHT22;1272;53.332;9.860;2023-05-10T07:13:44;15.00;99.90
2523;DHT22;1272;53.332;9.860;2023-05-10T07:16:11;14.90;99.90
2523;DHT22;1272;53.332;9.860;2023-05-10T07:18:37;14.90;99.90
2523;DHT22;1272;53.332;9.860;2023-05-10T07:21:03;14.90;99.90
2523;DHT22;1272;53.332;9.860;2023-05-10T07:23:29;14.90;99.90
2523;DHT22;1272;53.332;9.860;2023-05-10T07:25:55;14.80;99.90
2523;DHT22;1272;53.332;9.860;2023-05-10T07:28:23;14.90;99.90
2523;DHT22;1272;53.332;9.860;2023-05-10T07:30:49;14.90;99.90
2523;DHT22;1272;53.332;9.860;2023-05-10T07:33:16;14.90;99.90
2523;DHT22;1272;53.332;9.860;2023-05-10T07:35:42;14.90;99.90
2523;DHT22;1272;53.332;9.860;2023-05-10T07:38:08;14.90;99.90
2523;DHT22;1272;53.332;9.860;2023-05-10T07:40:33;14.90;99.90
2523;DHT22;1272;53.332;9.860;2023-05-10T07:42:59;15.00;99.90
2523;DHT22;1272;53.332;9.860;2023-05-10T07:45:27;14.90;99.90
2523;DHT22;1272;53.332;9.860;2023-05-10T07:47:52;15.00;99.90
2523;DHT22;1272;53.332;9.860;2023-05-10T07:50:19;15.10;99.90
2523;DHT22;1272;53.332;9.860;2023-05-10T07:52:46;15.10;99.90
2523;DHT22;1272;53.332;9.860;2023-05-10T07:55:12;15.10;99.90
2523;DHT22;1272;53.332;9.860;2023-05-10T07:57:38;15.10;99.90
2523;DHT22;1272;53.332;9.860;2023-05-10T08:00:05;15.10;99.90
2523;DHT22;1272;53.332;9.860;2023-05-10T08:02:30;15.10;99.90
2523;DHT22;1272;53.332;9.860;2023-05-10T08:04:56;15.00;99.90
2523;DHT22;1272;53.332;9.860;2023-05-10T08:07:24;15.00;99.90
2523;DHT22;1272;53.332;9.860;2023-05-10T08:09:50;15.00;99.90
2523;DHT22;1272;53.332;9.860;2023-05-10T08:12:16;15.00;99.90
2523;DHT22;1272;53.332;9.860;2023-05-10T08:14:42;15.10;99.90
2523;DHT22;1272;53.332;9.860;2023-05-10T08:17:07;15.10;99.90
2523;DHT22;1272;53.332;9.860;2023-05-10T08:19:33;15.10;99.90
2523;DHT22;1272;53.332;9.860;2023-05-10T08:21:59;15.10;99.90
2523;DHT22;1272;53.332;9.860;2023-05-10T08:24:25;15.10;99.90
2523;DHT22;1272;53.332;9.860;2023-05-10T08:26:50;15.20;99.90
2523;DHT22;1272;53.332;9.860;2023-05-10T08:29:16;15.20;99.90
2523;DHT22;1272;53.332;9.860;2023-05-10T08:31:43;15.20;99.90
2523;DHT22;1272;53.332;9.860;2023-05-10T08:34:09;15.30;99.90
2523;DHT22;1272;53.332;9.860;2023-05-10T08:36:35;15.30;99.90
2523;DHT22;1272;53.332;9.860;2023-05-10T08:39:01;15.40;99.90
2523;DHT22;1272;53.332;9.860;2023-05-10T08:41:27;15.30;99.90
2523;DHT22;1272;53.332;9.860;2023-05-10T08:43:54;15.30;99.90
2523;DHT22;1272;53.332;9.860;2023-05-10T08:46:23;15.30;99.90
2523;DHT22;1272;53.332;9.860;2023-05-10T08:48:50;15.30;99.90
2523;DHT22;1272;53.332;9.860;2023-05-10T08:51:23;15.30;99.90
2523;DHT22;1272;53.332;9.860;2023-05-10T08:53:52;15.20;99.90
2523;DHT22;1272;53.332;9.860;2023-05-10T08:56:18;15.20;99.90
2523;DHT22;1272;53.332;9.860;2023-05-10T08:58:45;15.20;99.90
2523;DHT22;1272;53.332;9.860;2023-05-10T09:01:12;15.20;99.90
2523;DHT22;1272;53.332;9.860;2023-05-10T09:03:39;15.20;99.90
2523;DHT22;1272;53.332;9.860;2023-05-10T09:06:05;15.20;99.90
2523;DHT22;1272;53.332;9.860;2023-05-10T09:08:31;15.00;99.90
2523;DHT22;1272;53.332;9.860;2023-05-10T09:10:57;15.00;99.90
2523;DHT22;1272;53.332;9.860;2023-05-10T09:13:24;14.90;99.90
2523;DHT22;1272;53.332;9.860;2023-05-10T09:15:52;14.80;99.90
2523;DHT22;1272;53.332;9.860;2023-05-10T09:18:18;14.70;99.90
2523;DHT22;1272;53.332;9.860;2023-05-10T09:20:45;14.70;99.90
2523;DHT22;1272;53.332;9.860;2023-05-10T09:23:11;14.70;99.90
2523;DHT22;1272;53.332;9.860;2023-05-10T09:25:36;14.70;99.90
2523;DHT22;1272;53.332;9.860;2023-05-10T09:28:08;14.60;99.90
2523;DHT22;1272;53.332;9.860;2023-05-10T09:30:35;14.60;99.90
2523;DHT22;1272;53.332;9.860;2023-05-10T09:33:01;14.60;99.90
2523;DHT22;1272;53.332;9.860;2023-05-10T09:35:29;14.60;99.90
2523;DHT22;1272;53.332;9.860;2023-05-10T09:37:58;14.60;99.90
2523;DHT22;1272;53.332;9.860;2023-05-10T09:40:26;14.50;99.90
2523;DHT22;1272;53.332;9.860;2023-05-10T09:43:02;14.30;99.90
2523;DHT22;1272;53.332;9.860;2023-05-10T09:45:32;14.40;99.90
2523;DHT22;1272;53.332;9.860;2023-05-10T09:48:00;14.30;99.90
2523;DHT22;1272;53.332;9.860;2023-05-10T09:50:27;14.30;99.90
2523;DHT22;1272;53.332;9.860;2023-05-10T09:52:58;14.30;99.90
2523;DHT22;1272;53.332;9.860;2023-05-10T09:55:45;14.40;99.90
2523;DHT22;1272;53.332;9.860;2023-05-10T09:58:13;14.40;99.90
2523;DHT22;1272;53.332;9.860;2023-05-10T10:00:41;14.40;99.90
2523;DHT22;1272;53.332;9.860;2023-05-10T10:03:18;14.50;99.90
2523;DHT22;1272;53.332;9.860;2023-05-10T10:05:46;14.40;99.90
2523;DHT22;1272;53.332;9.860;2023-05-10T10:08:12;14.40;99.90
2523;DHT22;1272;53.332;9.860;2023-05-10T10:10:39;14.40;99.90
2523;DHT22;1272;53.332;9.860;2023-05-10T10:13:09;14.40;99.90
2523;DHT22;1272;53.332;9.860;2023-05-10T10:15:35;14.40;99.90
2523;DHT22;1272;53.332;9.860;2023-05-10T10:18:01;14.30;99.90
2523;DHT22;1272;53.332;9.860;2023-05-10T10:20:29;14.30;99.90
2523;DHT22;1272;53.332;9.860;2023-05-10T10:22:54;14.30;99.90
2523;DHT22;1272;53.332;9.860;2023-05-10T10:25:23;14.30;99.90
2523;DHT22;1272;53.332;9.860;2023-05-10T10:35:22;14.50;99.90
2523;DHT22;1272;53.332;9.860;2023-05-10T10:37:50;14.50;99.90
2523;DHT22;1272;53.332;9.860;2023-05-10T10:40:42;14.50;99.90
2523;DHT22;1272;53.332;9.860;2023-05-10T10:43:25;14.60;99.90
2523;DHT22;1272;53.332;9.860;2023-05-10T10:48:38;14.60;99.90
2523;DHT22;1272;53.332;9.860;2023-05-10T10:51:04;14.60;99.90
2523;DHT22;1272;53.332;9.860;2023-05-10T10:53:30;14.50;99.90
2523;DHT22;1272;53.332;9.860;2023-05-10T10:56:10;14.50;99.90
2523;DHT22;1272;53.332;9.860;2023-05-10T10:58:38;14.50;99.90
2523;DHT22;1272;53.332;9.860;2023-05-10T11:01:15;14.50;99.90
2523;DHT22;1272;53.332;9.860;2023-05-10T11:06:33;14.50;99.90
2523;DHT22;1272;53.332;9.860;2023-05-10T11:09:09;14.50;99.90
2523;DHT22;1272;53.332;9.860;2023-05-10T11:11:36;14.50;99.90
2523;DHT22;1272;53.332;9.860;2023-05-10T11:14:06;14.50;99.90
2523;DHT22;1272;53.332;9.860;2023-05-10T11:16:44;14.50;99.90
2523;DHT22;1272;53.332;9.860;2023-05-10T11:19:12;14.60;99.90
2523;DHT22;1272;53.332;9.860;2023-05-10T11:24:30;14.70;99.90
2523;DHT22;1272;53.332;9.860;2023-05-10T11:26:56;14.70;99.90
2523;DHT22;1272;53.332;9.860;2023-05-10T11:29:22;14.70;99.90
2523;DHT22;1272;53.332;9.860;2023-05-10T11:31:49;14.80;99.90
2523;DHT22;1272;53.332;9.860;2023-05-10T11:34:28;14.90;99.90
2523;DHT22;1272;53.332;9.860;2023-05-10T11:36:56;15.00;99.90
2523;DHT22;1272;53.332;9.860;2023-05-10T11:39:30;15.00;99.90
2523;DHT22;1272;53.332;9.860;2023-05-10T11:41:57;14.90;99.90
2523;DHT22;1272;53.332;9.860;2023-05-10T11:44:23;15.00;99.90
2523;DHT22;1272;53.332;9.860;2023-05-10T11:46:49;15.10;99.90
2523;DHT22;1272;53.332;9.860;2023-05-10T11:49:15;15.20;99.90
2523;DHT22;1272;53.332;9.860;2023-05-10T11:51:41;15.20;99.90
2523;DHT22;1272;53.332;9.860;2023-05-10T11:54:10;15.30;99.90
2523;DHT22;1272;53.332;9.860;2023-05-10T11:56:37;15.30;99.90
2523;DHT22;1272;53.332;9.860;2023-05-10T11:59:03;15.30;99.90
2523;DHT22;1272;53.332;9.860;2023-05-10T12:01:30;15.40;99.90
2523;DHT22;1272;53.332;9.860;2023-05-10T12:03:57;15.40;99.90
2523;DHT22;1272;53.332;9.860;2023-05-10T12:06:27;15.40;99.90
2523;DHT22;1272;53.332;9.860;2023-05-10T12:08:54;15.50;99.90
2523;DHT22;1272;53.332;9.860;2023-05-10T12:11:20;15.60;99.90
2523;DHT22;1272;53.332;9.860;2023-05-10T12:13:50;15.70;99.90
2523;DHT22;1272;53.332;9.860;2023-05-10T12:16:18;15.70;99.90
2523;DHT22;1272;53.332;9.860;2023-05-10T12:18:45;15.70;99.90
2523;DHT22;1272;53.332;9.860;2023-05-10T12:21:11;15.80;99.90
2523;DHT22;1272;53.332;9.860;2023-05-10T12:23:38;15.90;99.90
2523;DHT22;1272;53.332;9.860;2023-05-10T12:26:05;15.90;99.90
2523;DHT22;1272;53.332;9.860;2023-05-10T12:28:32;15.90;99.90
2523;DHT22;1272;53.332;9.860;2023-05-10T12:30:58;16.00;99.90
2523;DHT22;1272;53.332;9.860;2023-05-10T12:33:24;16.00;99.90
2523;DHT22;1272;53.332;9.860;2023-05-10T12:35:52;16.00;99.90
2523;DHT22;1272;53.332;9.860;2023-05-10T12:38:36;16.00;99.90
2523;DHT22;1272;53.332;9.860;2023-05-10T12:41:06;16.00;99.90
2523;DHT22;1272;53.332;9.860;2023-05-10T12:43:34;16.00;99.90
2523;DHT22;1272;53.332;9.860;2023-05-10T12:48:37;16.10;99.90
2523;DHT22;1272;53.332;9.860;2023-05-10T12:51:03;16.10;99.90
2523;DHT22;1272;53.332;9.860;2023-05-10T12:53:30;16.20;99.90
2523;DHT22;1272;53.332;9.860;2023-05-10T12:55:56;16.30;99.90
2523;DHT22;1272;53.332;9.860;2023-05-10T12:58:22;16.30;99.90
2523;DHT22;1272;53.332;9.860;2023-05-10T13:00:48;16.40;99.90
2523;DHT22;1272;53.332;9.860;2023-05-10T13:03:14;16.50;99.90
2523;DHT22;1272;53.332;9.860;2023-05-10T13:05:41;16.50;99.90
2523;DHT22;1272;53.332;9.860;2023-05-10T13:08:06;16.50;99.90
2523;DHT22;1272;53.332;9.860;2023-05-10T13:10:32;16.60;99.90
2523;DHT22;1272;53.332;9.860;2023-05-10T13:12:58;16.60;99.90
2523;DHT22;1272;53.332;9.860;2023-05-10T13:15:25;16.60;99.90
2523;DHT22;1272;53.332;9.860;2023-05-10T13:17:51;16.50;99.90
2523;DHT22;1272;53.332;9.860;2023-05-10T13:20:17;16.60;99.90
2523;DHT22;1272;53.332;9.860;2023-05-10T13:22:44;16.60;99.90
2523;DHT22;1272;53.332;9.860;2023-05-10T13:25:11;16.70;99.90
2523;DHT22;1272;53.332;9.860;2023-05-10T13:27:37;16.80;99.90
2523;DHT22;1272;53.332;9.860;2023-05-10T13:30:03;17.00;99.90
2523;DHT22;1272;53.332;9.860;2023-05-10T13:32:29;17.10;99.90
2523;DHT22;1272;53.332;9.860;2023-05-10T13:34:55;17.20;99.90
2523;DHT22;1272;53.332;9.860;2023-05-10T13:37:21;17.30;99.90
2523;DHT22;1272;53.332;9.860;2023-05-10T13:39:47;17.30;99.90
2523;DHT22;1272;53.332;9.860;2023-05-10T13:42:13;17.40;99.90
2523;DHT22;1272;53.332;9.860;2023-05-10T13:44:39;17.30;99.90
2523;DHT22;1272;53.332;9.860;2023-05-10T13:47:05;17.30;99.90
2523;DHT22;1272;53.332;9.860;2023-05-10T13:49:31;17.40;99.90
2523;DHT22;1272;53.332;9.860;2023-05-10T13:51:57;17.40;99.90
2523;DHT22;1272;53.332;9.860;2023-05-10T13:54:23;17.40;99.90
2523;DHT22;1272;53.332;9.860;2023-05-10T13:56:49;17.40;99.90
2523;DHT22;1272;53.332;9.860;2023-05-10T13:59:15;17.40;99.90
2523;DHT22;1272;53.332;9.860;2023-05-10T14:01:41;17.50;99.90
2523;DHT22;1272;53.332;9.860;2023-05-10T14:04:08;17.60;99.90
2523;DHT22;1272;53.332;9.860;2023-05-10T14:06:36;17.60;99.90
2523;DHT22;1272;53.332;9.860;2023-05-10T14:09:04;17.70;99.90
2523;DHT22;1272;53.332;9.860;2023-05-10T14:11:30;17.90;99.90
2523;DHT22;1272;53.332;9.860;2023-05-10T14:13:55;18.00;99.90
2523;DHT22;1272;53.332;9.860;2023-05-10T14:16:21;18.20;99.90
2523;DHT22;1272;53.332;9.860;2023-05-10T14:18:47;18.30;99.90
2523;DHT22;1272;53.332;9.860;2023-05-10T14:21:13;18.50;99.90
2523;DHT22;1272;53.332;9.860;2023-05-10T14:23:39;18.80;99.90
2523;DHT22;1272;53.332;9.860;2023-05-10T14:26:04;18.80;99.90
2523;DHT22;1272;53.332;9.860;2023-05-10T14:28:30;18.70;99.90
2523;DHT22;1272;53.332;9.860;2023-05-10T14:30:56;18.70;99.90
2523;DHT22;1272;53.332;9.860;2023-05-10T14:33:22;18.60;99.90
2523;DHT22;1272;53.332;9.860;2023-05-10T14:35:48;18.50;99.90
2523;DHT22;1272;53.332;9.860;2023-05-10T14:38:14;18.40;99.90
2523;DHT22;1272;53.332;9.860;2023-05-10T14:40:40;18.30;99.90
2523;DHT22;1272;53.332;9.860;2023-05-10T14:43:05;18.30;99.90
2523;DHT22;1272;53.332;9.860;2023-05-10T14:45:31;18.30;99.90
2523;DHT22;1272;53.332;9.860;2023-05-10T14:47:57;18.30;99.90
2523;DHT22;1272;53.332;9.860;2023-05-10T14:50:23;18.20;99.90
2523;DHT22;1272;53.332;9.860;2023-05-10T14:52:49;18.20;99.90
2523;DHT22;1272;53.332;9.860;2023-05-10T14:55:15;18.10;99.90
2523;DHT22;1272;53.332;9.860;2023-05-10T14:57:41;18.00;99.90
2523;DHT22;1272;53.332;9.860;2023-05-10T15:00:08;17.80;99.90
2523;DHT22;1272;53.332;9.860;2023-05-10T15:02:34;17.80;99.90
2523;DHT22;1272;53.332;9.860;2023-05-10T15:05:00;17.60;99.90
2523;DHT22;1272;53.332;9.860;2023-05-10T15:07:26;17.60;99.90
2523;DHT22;1272;53.332;9.860;2023-05-10T15:09:51;17.50;99.90
2523;DHT22;1272;53.332;9.860;2023-05-10T15:12:18;17.30;99.90
2523;DHT22;1272;53.332;9.860;2023-05-10T15:14:44;17.30;99.90
2523;DHT22;1272;53.332;9.860;2023-05-10T15:17:09;17.20;99.90
2523;DHT22;1272;53.332;9.860;2023-05-10T15:19:35;17.10;99.90
2523;DHT22;1272;53.332;9.860;2023-05-10T15:22:02;17.10;99.90
2523;DHT22;1272;53.332;9.860;2023-05-10T15:24:27;16.90;99.90
2523;DHT22;1272;53.332;9.860;2023-05-10T15:26:54;16.90;99.90
2523;DHT22;1272;53.332;9.860;2023-05-10T15:29:20;16.80;99.90
2523;DHT22;1272;53.332;9.860;2023-05-10T15:31:50;16.80;99.90
2523;DHT22;1272;53.332;9.860;2023-05-10T15:34:17;16.80;99.90
2523;DHT22;1272;53.332;9.860;2023-05-10T15:36:44;16.80;99.90
2523;DHT22;1272;53.332;9.860;2023-05-10T15:39:11;16.80;99.90
2523;DHT22;1272;53.332;9.860;2023-05-10T15:41:37;16.80;99.90
2523;DHT22;1272;53.332;9.860;2023-05-10T15:44:03;16.90;99.90
2523;DHT22;1272;53.332;9.860;2023-05-10T15:46:29;16.80;99.90
2523;DHT22;1272;53.332;9.860;2023-05-10T15:48:57;16.80;99.90
2523;DHT22;1272;53.332;9.860;2023-05-10T15:51:24;16.80;99.90
2523;DHT22;1272;53.332;9.860;2023-05-10T15:53:49;16.90;99.90
2523;DHT22;1272;53.332;9.860;2023-05-10T15:56:16;16.90;99.90
2523;DHT22;1272;53.332;9.860;2023-05-10T15:58:41;17.00;99.90
2523;DHT22;1272;53.332;9.860;2023-05-10T16:01:09;17.00;99.90
2523;DHT22;1272;53.332;9.860;2023-05-10T16:03:36;17.10;99.90
2523;DHT22;1272;53.332;9.860;2023-05-10T16:06:02;17.20;99.90
2523;DHT22;1272;53.332;9.860;2023-05-10T16:08:28;17.20;99.90
2523;DHT22;1272;53.332;9.860;2023-05-10T16:10:58;17.20;99.90
2523;DHT22;1272;53.332;9.860;2023-05-10T16:13:24;17.10;99.90
2523;DHT22;1272;53.332;9.860;2023-05-10T16:15:49;17.00;99.90
2523;DHT22;1272;53.332;9.860;2023-05-10T16:18:15;16.90;99.90
2523;DHT22;1272;53.332;9.860;2023-05-10T16:20:42;16.80;99.90
2523;DHT22;1272;53.332;9.860;2023-05-10T16:23:08;16.70;99.90
2523;DHT22;1272;53.332;9.860;2023-05-10T16:25:34;16.70;99.90
2523;DHT22;1272;53.332;9.860;2023-05-10T16:28:00;16.70;99.90
2523;DHT22;1272;53.332;9.860;2023-05-10T16:30:26;16.70;99.90
2523;DHT22;1272;53.332;9.860;2023-05-10T16:32:55;16.80;99.90
2523;DHT22;1272;53.332;9.860;2023-05-10T16:35:21;16.90;99.90
2523;DHT22;1272;53.332;9.860;2023-05-10T16:37:48;17.00;99.90
2523;DHT22;1272;53.332;9.860;2023-05-10T16:40:14;17.00;99.90
2523;DHT22;1272;53.332;9.860;2023-05-10T16:42:39;17.00;99.90